KWDG/WDG METAR and TAF weather

Enter ICAO airport designator
Station Type Date Time Source
KWDG METAR 2019/05/25 15:49 UTC NOAA

KWDG 251549Z 18013G22KT 10SM BKN016 BKN060 OVC200 25/21 A2999


Station Type Date Time Source
KWDG Decoded METAR 2019/05/25 15:49 UTC NOAA

Enid, Enid Woodring Regional Airport, OK, United States (KWDG) 36-22-45N 097-47-28W
May 25, 2019 - 11:49 AM EDT / 2019.05.25 1549 UTC
Wind: from the S (180 degrees) at 15 MPH (13 KT) gusting to 25 MPH (22 KT):0
Visibility: 10 mile(s):0
Sky conditions: overcast
Temperature: 77 F (25 C)
Dew Point: 69 F (21 C)
Relative Humidity: 78%
Pressure (altimeter): 29.99 in. Hg (1015 hPa)
ob: KWDG 251549Z 18013G22KT 10SM BKN016 BKN060 OVC200 25/21 A2999
cycle: 16

Station Type Date Time Source
KWDG TAF UTC NOAA

Error!

Example: see airport list